createdAt,value
2018-09-21T00:00:46.703Z,4.40
2018-09-21T00:01:46.701Z,4.20
2018-09-21T00:02:46.707Z,4.40
2018-09-21T00:03:46.737Z,4.80
2018-09-21T00:04:46.715Z,4.50
2018-09-21T00:05:46.715Z,4.70
2018-09-21T00:06:46.743Z,4.70
2018-09-21T00:07:46.720Z,3.90
2018-09-21T00:08:46.720Z,4.10
2018-09-21T00:09:46.752Z,4.90
2018-09-21T00:10:46.724Z,4.20
2018-09-21T00:11:46.737Z,4.80
2018-09-21T00:12:46.733Z,4.70
2018-09-21T00:13:46.733Z,4.80
2018-09-21T00:14:46.767Z,4.30
2018-09-21T00:15:46.741Z,4.70
2018-09-21T00:16:46.742Z,4.50
2018-09-21T00:17:46.750Z,4.60
2018-09-21T00:18:46.746Z,4.30
2018-09-21T00:19:46.779Z,4.30
2018-09-21T00:20:46.751Z,4.20
2018-09-21T00:21:46.754Z,4.50
2018-09-21T00:22:46.759Z,4.40
2018-09-21T00:23:46.759Z,4.20
2018-09-21T00:24:46.787Z,4.50
2018-09-21T00:25:46.767Z,4.30
2018-09-21T00:26:46.767Z,4.10
2018-09-21T00:27:46.768Z,4.00
2018-09-21T00:28:46.765Z,4.20
2018-09-21T00:29:46.800Z,4.40
2018-09-21T00:30:46.778Z,4.60
2018-09-21T00:31:46.781Z,4.70
2018-09-21T00:32:46.781Z,4.30
2018-09-21T00:33:46.781Z,4.30
2018-09-21T00:34:46.811Z,4.20
2018-09-21T00:35:46.793Z,4.40
2018-09-21T00:36:46.790Z,4.20
2018-09-21T00:37:46.795Z,4.50
2018-09-21T00:38:46.795Z,4.00
2018-09-21T00:39:46.827Z,4.30
2018-09-21T00:40:46.799Z,4.90
2018-09-21T00:41:46.807Z,4.40
2018-09-21T00:42:46.807Z,4.30
2018-09-21T00:43:46.811Z,4.20
2018-09-21T00:44:46.836Z,4.20
2018-09-21T00:45:46.812Z,4.00
2018-09-21T00:46:46.816Z,4.20
2018-09-21T00:47:46.821Z,4.40
2018-09-21T00:48:46.821Z,4.00
2018-09-21T00:49:46.849Z,4.60
2018-09-21T00:50:46.825Z,4.40
2018-09-21T00:51:46.827Z,3.90
2018-09-21T00:52:46.831Z,4.30
2018-09-21T00:53:46.854Z,4.10
2018-09-21T00:54:46.833Z,3.90
2018-09-21T00:55:46.838Z,4.20
2018-09-21T00:56:46.871Z,4.70
2018-09-21T00:57:46.843Z,4.10
2018-09-21T00:58:46.843Z,4.30
2018-09-21T00:59:46.871Z,4.10
2018-09-21T01:00:46.846Z,4.20
2018-09-21T01:01:46.851Z,3.80
2018-09-21T01:02:46.861Z,4.30
2018-09-21T01:03:46.861Z,4.50
2018-09-21T01:04:46.887Z,4.50
2018-09-21T01:05:46.857Z,4.10
2018-09-21T01:06:46.866Z,4.50
2018-09-21T01:07:46.868Z,4.20
2018-09-21T01:08:46.898Z,4.40
2018-09-21T01:09:46.869Z,4.10
2018-09-21T01:10:46.874Z,4.40
2018-09-21T01:11:46.878Z,4.30
2018-09-21T01:12:46.878Z,4.30
2018-09-21T01:13:46.907Z,4.00
2018-09-21T01:14:46.887Z,4.20
2018-09-21T01:15:46.888Z,3.60
2018-09-21T01:16:46.886Z,3.90
2018-09-21T01:17:46.890Z,4.00
2018-09-21T01:18:46.923Z,4.30
2018-09-21T01:19:46.896Z,4.30
2018-09-21T01:20:46.895Z,4.10
2018-09-21T01:21:46.899Z,4.00
2018-09-21T01:22:46.904Z,4.10
2018-09-21T01:23:47.052Z,3.80
2018-09-21T01:24:46.911Z,4.00
2018-09-21T01:25:46.908Z,4.40
2018-09-21T01:26:46.917Z,4.20
2018-09-21T01:27:46.941Z,3.80
2018-09-21T01:28:46.946Z,4.10
2018-09-21T01:29:46.922Z,4.60
2018-09-21T01:30:46.918Z,3.90
2018-09-21T01:31:46.927Z,4.30
2018-09-21T01:32:46.944Z,4.10
2018-09-21T01:33:46.955Z,4.60
2018-09-21T01:34:46.931Z,4.30
2018-09-21T01:35:46.933Z,4.50
2018-09-21T01:36:46.940Z,4.60
2018-09-21T01:37:46.940Z,4.40
2018-09-21T01:38:46.969Z,4.50
2018-09-21T01:39:46.943Z,4.10
2018-09-21T01:40:46.944Z,4.30
2018-09-21T01:41:46.948Z,4.20
2018-09-21T01:42:46.948Z,4.50
2018-09-21T01:43:47.126Z,4.30
2018-09-21T01:44:46.958Z,4.10
2018-09-21T01:45:46.957Z,3.90
2018-09-21T01:46:46.960Z,4.10
2018-09-21T01:47:46.962Z,4.20
2018-09-21T01:48:46.994Z,4.50
2018-09-21T01:49:46.965Z,3.80
2018-09-21T01:50:46.971Z,4.50
2018-09-21T01:51:46.972Z,4.60
2018-09-21T01:52:46.974Z,4.00
2018-09-21T01:53:47.004Z,4.70
2018-09-21T01:54:46.977Z,4.60
2018-09-21T01:55:46.979Z,4.30
2018-09-21T01:56:46.989Z,4.40
2018-09-21T01:57:47.012Z,4.70
2018-09-21T01:58:46.988Z,3.90
2018-09-21T01:59:47.017Z,4.60
2018-09-21T02:00:46.996Z,4.50
2018-09-21T02:01:46.992Z,4.20
2018-09-21T02:02:46.998Z,4.60
2018-09-21T02:03:47.062Z,3.60
2018-09-21T02:04:47.029Z,4.50
2018-09-21T02:05:47.000Z,4.00
2018-09-21T02:06:47.005Z,4.00
2018-09-21T02:07:47.009Z,4.20
2018-09-21T02:08:47.015Z,4.30
2018-09-21T02:09:47.039Z,4.20
2018-09-21T02:10:47.015Z,4.50
2018-09-21T02:11:47.022Z,4.40
2018-09-21T02:12:47.017Z,3.20
2018-09-21T02:13:47.021Z,4.10
2018-09-21T02:14:47.054Z,4.50
2018-09-21T02:15:47.028Z,4.40
2018-09-21T02:16:47.028Z,4.10
2018-09-21T02:17:47.084Z,3.80
2018-09-21T02:18:47.032Z,3.60
2018-09-21T02:19:47.063Z,3.90
2018-09-21T02:20:47.036Z,4.20
2018-09-21T02:21:47.037Z,4.40
2018-09-21T02:22:47.040Z,4.80
2018-09-21T02:23:47.045Z,4.00
2018-09-21T02:24:47.045Z,4.40
2018-09-21T02:25:47.081Z,4.10
2018-09-21T02:26:47.051Z,3.90
2018-09-21T02:27:47.050Z,4.60
2018-09-21T02:28:47.054Z,3.90
2018-09-21T02:29:47.059Z,4.50
2018-09-21T02:30:47.089Z,4.40
2018-09-21T02:31:47.060Z,4.20
2018-09-21T02:32:47.065Z,4.30
2018-09-21T02:33:47.063Z,4.10
2018-09-21T02:34:47.072Z,4.30
2018-09-21T02:35:47.100Z,4.50
2018-09-21T02:36:47.072Z,4.20
2018-09-21T02:37:47.072Z,4.60
2018-09-21T02:38:47.076Z,4.20
2018-09-21T02:39:47.109Z,4.20
2018-09-21T02:40:47.073Z,4.70
2018-09-21T02:41:47.115Z,4.50
2018-09-21T02:42:47.081Z,4.70
2018-09-21T02:43:47.085Z,4.70
2018-09-21T02:44:47.087Z,4.50
2018-09-21T02:45:47.118Z,3.80
2018-09-21T02:46:47.090Z,4.30
2018-09-21T02:47:47.095Z,4.50
2018-09-21T02:48:47.163Z,4.30
2018-09-21T02:49:47.099Z,4.10
2018-09-21T02:50:47.128Z,4.10
2018-09-21T02:51:47.104Z,4.20
2018-09-21T02:52:47.104Z,4.40
2018-09-21T02:53:47.108Z,3.80
2018-09-21T02:54:47.108Z,4.30
2018-09-21T02:55:47.140Z,4.60
2018-09-21T02:56:47.113Z,4.20
2018-09-21T02:57:47.117Z,4.60
2018-09-21T02:58:47.117Z,4.20
2018-09-21T02:59:47.121Z,4.30
2018-09-21T03:00:47.267Z,4.20
2018-09-21T03:01:47.126Z,4.40
2018-09-21T03:02:47.126Z,4.00
2018-09-21T03:03:47.155Z,4.20
2018-09-21T03:04:47.131Z,4.30
2018-09-21T03:05:47.161Z,4.40
2018-09-21T03:06:47.134Z,4.00
2018-09-21T03:07:47.137Z,4.50
2018-09-21T03:08:47.140Z,4.60
2018-09-21T03:09:47.140Z,4.30
2018-09-21T03:10:47.168Z,4.70
2018-09-21T03:11:47.144Z,4.30
2018-09-21T03:12:47.169Z,4.00
2018-09-21T03:13:47.148Z,4.10
2018-09-21T03:14:47.155Z,4.40
2018-09-21T03:15:47.186Z,4.40
2018-09-21T03:16:47.162Z,4.60
2018-09-21T03:17:47.162Z,4.20
2018-09-21T03:18:47.158Z,4.50
2018-09-21T03:19:47.162Z,4.10
2018-09-21T03:20:47.188Z,4.60
2018-09-21T03:21:47.174Z,4.30
2018-09-21T03:22:47.173Z,4.70
2018-09-21T03:23:47.171Z,4.10
2018-09-21T03:24:47.199Z,4.40
2018-09-21T03:25:47.175Z,3.90
2018-09-21T03:26:47.202Z,4.70
2018-09-21T03:27:47.181Z,4.50
2018-09-21T03:28:47.183Z,4.30
2018-09-21T03:29:47.176Z,4.40
2018-09-21T03:30:47.184Z,4.10
2018-09-21T03:31:47.214Z,4.30
2018-09-21T03:32:47.188Z,4.70
2018-09-21T03:33:47.189Z,4.70
2018-09-21T03:34:47.216Z,4.10
2018-09-21T03:35:47.190Z,4.30
2018-09-21T03:36:47.218Z,3.90
2018-09-21T03:37:47.199Z,4.30
2018-09-21T03:38:47.202Z,4.60
2018-09-21T03:39:47.204Z,4.20
2018-09-21T03:40:47.205Z,4.50
2018-09-21T03:41:47.235Z,4.60
2018-09-21T03:42:47.203Z,4.40
2018-09-21T03:43:47.212Z,4.10
2018-09-21T03:44:47.216Z,4.10
2018-09-21T03:45:47.233Z,4.60
2018-09-21T03:46:47.248Z,4.20
2018-09-21T03:47:47.219Z,4.60
2018-09-21T03:48:47.225Z,4.60
2018-09-21T03:49:47.224Z,4.80
2018-09-21T03:50:47.225Z,4.70
2018-09-21T03:51:47.253Z,4.10
2018-09-21T03:52:47.229Z,4.70
2018-09-21T03:53:47.225Z,4.90
2018-09-21T03:54:47.257Z,4.70
2018-09-21T03:55:47.235Z,4.90
2018-09-21T03:56:47.246Z,4.70
2018-09-21T03:57:47.270Z,4.40
2018-09-21T03:58:47.244Z,4.60
2018-09-21T03:59:47.245Z,4.60
2018-09-21T04:00:47.245Z,4.40
2018-09-21T04:01:47.249Z,4.70
2018-09-21T04:02:47.275Z,4.70
2018-09-21T04:03:47.251Z,4.80
2018-09-21T04:04:47.246Z,4.50
2018-09-21T04:05:47.253Z,4.10
2018-09-21T04:06:47.260Z,4.30
2018-09-21T04:07:47.284Z,4.20
2018-09-21T04:08:47.260Z,4.40
2018-09-21T04:09:47.256Z,4.30
2018-09-21T04:10:47.260Z,4.50
2018-09-21T04:11:47.265Z,4.40
2018-09-21T04:12:47.308Z,4.40
2018-09-21T04:13:47.315Z,4.90
2018-09-21T04:14:47.297Z,4.80
2018-09-21T04:15:47.274Z,4.80
2018-09-21T04:16:47.277Z,4.60
2018-09-21T04:17:47.277Z,5.00
2018-09-21T04:18:47.304Z,4.80
2018-09-21T04:19:47.282Z,5.00
2018-09-21T04:20:47.281Z,4.80
2018-09-21T04:21:47.328Z,4.60
2018-09-21T04:22:47.286Z,4.80
2018-09-21T04:23:47.319Z,4.30
2018-09-21T04:24:47.291Z,4.50
2018-09-21T04:25:47.291Z,4.10
2018-09-21T04:26:47.294Z,4.70
2018-09-21T04:27:47.296Z,5.10
2018-09-21T04:28:47.327Z,4.60
2018-09-21T04:29:47.300Z,4.90
2018-09-21T04:30:47.304Z,4.80
2018-09-21T04:31:47.304Z,4.60
2018-09-21T04:32:47.304Z,5.30
2018-09-21T04:33:47.337Z,4.50
2018-09-21T04:34:47.313Z,4.90
2018-09-21T04:35:47.313Z,4.90
2018-09-21T04:36:47.313Z,4.90
2018-09-21T04:37:47.318Z,4.90
2018-09-21T04:38:47.342Z,5.40
2018-09-21T04:39:47.322Z,4.80
2018-09-21T04:40:47.324Z,5.00
2018-09-21T04:41:48.187Z,4.70
2018-09-21T04:42:47.326Z,4.90
2018-09-21T04:43:47.355Z,5.20
2018-09-21T04:44:47.332Z,5.10
2018-09-21T04:45:47.346Z,4.70
2018-09-21T04:46:47.331Z,4.60
2018-09-21T04:47:47.365Z,4.00
2018-09-21T04:48:47.334Z,4.80
2018-09-21T04:49:47.348Z,4.30
2018-09-21T04:50:47.368Z,4.40
2018-09-21T04:51:47.492Z,5.00
2018-09-21T04:52:47.344Z,4.80
2018-09-21T04:53:47.372Z,5.10
2018-09-21T04:54:47.346Z,4.70
2018-09-21T04:55:47.353Z,4.50
2018-09-21T04:56:47.355Z,4.80
2018-09-21T04:57:47.389Z,4.70
2018-09-21T04:58:47.357Z,4.60
2018-09-21T04:59:47.362Z,4.80
2018-09-21T05:00:47.362Z,4.70
2018-09-21T05:01:47.363Z,4.20
2018-09-21T05:02:47.396Z,4.10
2018-09-21T05:03:47.366Z,3.40
2018-09-21T05:04:47.374Z,4.20
2018-09-21T05:05:47.366Z,4.90
2018-09-21T05:06:47.373Z,4.50
2018-09-21T05:07:47.403Z,4.80
2018-09-21T05:08:47.383Z,4.70
2018-09-21T05:09:47.380Z,4.70
2018-09-21T05:10:47.384Z,4.80
2018-09-21T05:11:47.388Z,4.40
2018-09-21T05:12:47.412Z,4.90
2018-09-21T05:13:47.445Z,4.60
2018-09-21T05:14:47.393Z,4.70
2018-09-21T05:15:47.396Z,4.60
2018-09-21T05:16:47.391Z,4.50
2018-09-21T05:17:47.426Z,5.00
2018-09-21T05:18:47.399Z,4.30
2018-09-21T05:19:47.412Z,4.90
2018-09-21T05:20:47.403Z,4.20
2018-09-21T05:21:47.657Z,4.80
2018-09-21T05:22:47.435Z,4.70
2018-09-21T05:23:47.468Z,4.50
2018-09-21T05:24:47.413Z,4.40
2018-09-21T05:25:47.419Z,4.70
2018-09-21T05:26:47.416Z,4.90
2018-09-21T05:27:47.444Z,4.10
2018-09-21T05:28:47.420Z,4.40
2018-09-21T05:29:47.436Z,4.80
2018-09-21T05:30:47.428Z,4.70
2018-09-21T05:31:47.433Z,4.20
2018-09-21T05:32:47.468Z,4.80
2018-09-21T05:33:47.433Z,4.80
2018-09-21T05:34:47.612Z,4.60
2018-09-21T05:35:47.438Z,4.50
2018-09-21T05:36:47.442Z,4.40
2018-09-21T05:37:47.474Z,4.50
2018-09-21T05:38:47.442Z,4.00
2018-09-21T05:39:47.442Z,4.60
2018-09-21T05:40:47.446Z,4.80
2018-09-21T05:41:47.450Z,4.70
2018-09-21T05:42:47.486Z,4.50
2018-09-21T05:43:47.456Z,4.40
2018-09-21T05:44:47.455Z,4.60
2018-09-21T05:45:47.460Z,4.40
2018-09-21T05:46:47.463Z,4.60
2018-09-21T05:47:47.488Z,4.40
2018-09-21T05:48:47.471Z,4.30
2018-09-21T05:49:47.468Z,4.70
2018-09-21T05:50:47.469Z,4.00
2018-09-21T05:51:47.472Z,3.80
2018-09-21T05:52:47.501Z,3.80
2018-09-21T05:53:47.476Z,4.40
2018-09-21T05:54:47.477Z,4.00
2018-09-21T05:55:47.482Z,4.50
2018-09-21T05:56:47.512Z,4.20
2018-09-21T05:57:47.487Z,4.30
2018-09-21T05:58:47.491Z,3.60
2018-09-21T05:59:47.489Z,3.50
2018-09-21T06:00:47.498Z,4.40
2018-09-21T06:01:47.523Z,4.10
2018-09-21T06:02:47.549Z,4.30
2018-09-21T06:03:47.528Z,4.50
2018-09-21T06:04:47.500Z,4.10
2018-09-21T06:05:47.508Z,4.10
2018-09-21T06:06:47.540Z,4.30
2018-09-21T06:07:47.589Z,4.50
2018-09-21T06:08:47.516Z,3.80
2018-09-21T06:09:47.513Z,4.40
2018-09-21T06:10:47.522Z,4.10
2018-09-21T06:11:47.550Z,4.10
2018-09-21T06:12:47.527Z,4.10
2018-09-21T06:13:47.625Z,4.20
2018-09-21T06:14:47.540Z,4.60
2018-09-21T06:15:47.538Z,4.40
2018-09-21T06:16:47.567Z,4.40
2018-09-21T06:17:47.542Z,4.20
2018-09-21T06:18:47.548Z,4.30
2018-09-21T06:19:47.549Z,4.50
2018-09-21T06:20:47.553Z,4.20
2018-09-21T06:21:47.585Z,4.20
2018-09-21T06:22:47.572Z,4.20
2018-09-21T06:23:47.564Z,4.50
2018-09-21T06:24:47.567Z,4.40
2018-09-21T06:25:47.565Z,3.80
2018-09-21T06:26:47.607Z,4.50
2018-09-21T06:27:47.577Z,3.80
2018-09-21T06:28:47.582Z,4.20
2018-09-21T06:29:47.588Z,4.10
2018-09-21T06:30:47.593Z,4.00
2018-09-21T06:31:47.627Z,4.10
2018-09-21T06:32:47.601Z,4.00
2018-09-21T06:33:47.607Z,4.00
2018-09-21T06:34:47.609Z,4.20
2018-09-21T06:35:47.615Z,4.10
2018-09-21T06:36:47.648Z,4.10
2018-09-21T06:37:47.619Z,4.10
2018-09-21T06:38:47.622Z,4.20
2018-09-21T06:39:47.629Z,4.20
2018-09-21T06:40:47.634Z,4.10
2018-09-21T06:41:47.667Z,4.00
2018-09-21T06:42:47.648Z,4.20
2018-09-21T06:43:47.683Z,4.40
2018-09-21T06:44:47.656Z,4.20
2018-09-21T06:45:47.660Z,3.90
2018-09-21T06:46:47.692Z,3.90
2018-09-21T06:47:47.670Z,4.10
2018-09-21T06:48:47.668Z,3.90
2018-09-21T06:49:47.691Z,3.90
2018-09-21T06:50:47.683Z,4.20
2018-09-21T06:51:47.718Z,4.20
2018-09-21T06:52:47.698Z,4.30
2018-09-21T06:53:47.695Z,4.10
2018-09-21T06:54:47.704Z,3.90
2018-09-21T06:55:47.710Z,4.00
2018-09-21T06:56:47.738Z,4.10
2018-09-21T06:57:47.754Z,4.10
2018-09-21T06:58:47.723Z,4.10
2018-09-21T06:59:47.735Z,4.10
2018-09-21T07:00:47.739Z,4.20
2018-09-21T07:01:47.849Z,3.80
2018-09-21T07:02:47.772Z,3.80
2018-09-21T07:03:47.752Z,3.70
2018-09-21T07:04:47.757Z,3.90
2018-09-21T07:05:47.761Z,3.80
2018-09-21T07:06:47.793Z,3.90
2018-09-21T07:07:47.772Z,4.30
2018-09-21T07:08:47.784Z,3.80
2018-09-21T07:09:47.785Z,4.20
2018-09-21T07:10:47.799Z,4.00
2018-09-21T07:11:47.826Z,4.00
2018-09-21T07:12:47.806Z,3.70
2018-09-21T07:13:47.846Z,4.30
2018-09-21T07:14:47.822Z,4.00
2018-09-21T07:15:47.855Z,3.90
2018-09-21T07:16:47.835Z,3.50
2018-09-21T07:17:47.879Z,3.90
2018-09-21T07:18:47.854Z,4.00
2018-09-21T07:19:47.859Z,4.00
2018-09-21T07:20:47.868Z,3.70
2018-09-21T07:21:47.883Z,3.80
2018-09-21T07:22:47.916Z,3.90
2018-09-21T07:23:47.952Z,3.60
2018-09-21T07:24:47.901Z,3.90
2018-09-21T07:25:47.910Z,4.10
2018-09-21T07:26:47.918Z,3.50
2018-09-21T07:27:47.957Z,4.30
2018-09-21T07:28:47.941Z,3.40
2018-09-21T07:29:47.950Z,3.50
2018-09-21T07:30:48.010Z,3.80
2018-09-21T07:31:47.966Z,4.30
2018-09-21T07:32:48.003Z,3.80
2018-09-21T07:33:47.988Z,3.70
2018-09-21T07:34:47.995Z,4.10
2018-09-21T07:35:48.009Z,3.60
2018-09-21T07:36:48.013Z,3.50
2018-09-21T07:37:48.052Z,3.40
2018-09-21T07:38:48.036Z,3.70
2018-09-21T07:39:48.043Z,3.60
2018-09-21T07:40:48.058Z,3.80
2018-09-21T07:41:48.072Z,3.70
2018-09-21T07:42:48.106Z,4.00
2018-09-21T07:43:48.188Z,4.00
2018-09-21T07:44:48.093Z,3.70
2018-09-21T07:45:48.105Z,3.10
2018-09-21T07:46:48.113Z,3.20
2018-09-21T07:47:48.152Z,3.80
2018-09-21T07:48:48.157Z,3.40
2018-09-21T07:49:48.143Z,3.90
2018-09-21T07:50:48.154Z,3.80
2018-09-21T07:51:48.166Z,3.60
2018-09-21T07:52:48.203Z,3.90
2018-09-21T07:53:48.184Z,3.70
2018-09-21T07:54:48.200Z,3.50
2018-09-21T07:55:48.204Z,3.70
2018-09-21T07:56:48.217Z,3.60
2018-09-21T07:57:48.250Z,3.90
2018-09-21T07:58:48.240Z,3.70
2018-09-21T07:59:48.252Z,4.10
2018-09-21T08:00:48.267Z,3.70
2018-09-21T08:01:48.277Z,3.40
2018-09-21T08:02:48.311Z,3.70
2018-09-21T08:03:48.295Z,3.80
2018-09-21T08:04:48.309Z,4.10
2018-09-21T08:05:48.325Z,3.60
2018-09-21T08:06:48.334Z,3.70
2018-09-21T08:07:48.374Z,3.90
2018-09-21T08:08:48.358Z,3.80
2018-09-21T08:09:48.372Z,3.70
2018-09-21T08:10:48.398Z,3.90
2018-09-21T08:11:48.395Z,3.80
2018-09-21T08:12:48.469Z,3.90
2018-09-21T08:13:48.447Z,3.90
2018-09-21T08:14:48.436Z,4.20
2018-09-21T08:15:48.441Z,3.90
2018-09-21T08:16:48.457Z,3.80
2018-09-21T08:17:48.496Z,3.90
2018-09-21T08:18:48.505Z,3.90
2018-09-21T08:19:48.543Z,3.90
2018-09-21T08:20:48.502Z,4.30
2018-09-21T08:21:48.518Z,4.30
2018-09-21T08:22:48.554Z,3.90
2018-09-21T08:23:48.563Z,3.50
2018-09-21T08:24:48.554Z,4.10
2018-09-21T08:25:48.563Z,4.10
2018-09-21T08:26:48.575Z,3.80
2018-09-21T08:27:48.619Z,4.10
2018-09-21T08:28:48.631Z,4.20
2018-09-21T08:29:48.612Z,4.10
2018-09-21T08:30:48.633Z,4.10
2018-09-21T08:31:48.636Z,4.10
2018-09-21T08:32:48.673Z,4.20
2018-09-21T08:33:48.685Z,4.20
2018-09-21T08:34:48.670Z,4.20
2018-09-21T08:35:48.680Z,4.60
2018-09-21T08:36:48.694Z,4.50
2018-09-21T08:37:48.701Z,4.10
2018-09-21T08:38:48.929Z,4.50
2018-09-21T08:39:51.261Z,4.10
2018-09-21T08:40:48.730Z,4.20
2018-09-21T08:41:48.742Z,3.90
2018-09-21T08:42:49.084Z,4.10
2018-09-21T08:43:48.787Z,3.70
2018-09-21T08:44:51.779Z,3.90
2018-09-21T08:45:48.783Z,4.50
2018-09-21T08:46:48.795Z,4.10
2018-09-21T08:47:48.809Z,3.90
2018-09-21T08:48:48.862Z,3.40
2018-09-21T08:49:48.858Z,4.20
2018-09-21T08:50:49.393Z,3.60
2018-09-21T08:51:49.060Z,3.90
2018-09-21T08:52:48.861Z,3.90
2018-09-21T08:53:48.869Z,4.70
2018-09-21T08:54:48.961Z,4.10
2018-09-21T08:55:48.892Z,4.00
2018-09-21T08:56:49.757Z,4.30
2018-09-21T08:57:49.841Z,4.10
2018-09-21T08:58:48.953Z,4.20
2018-09-21T08:59:48.938Z,4.00
2018-09-21T09:00:48.952Z,4.20
2018-09-21T09:01:48.958Z,4.10
2018-09-21T09:02:50.278Z,3.70
2018-09-21T09:03:49.007Z,4.00
2018-09-21T09:04:48.988Z,3.80
2018-09-21T09:05:49.000Z,4.00
2018-09-21T09:06:49.013Z,4.20
2018-09-21T09:07:49.021Z,4.10
2018-09-21T09:08:49.054Z,4.00
2018-09-21T09:09:50.010Z,3.80
2018-09-21T09:10:49.050Z,4.50
2018-09-21T09:11:49.064Z,4.20
2018-09-21T09:12:49.070Z,4.20
2018-09-21T09:13:49.112Z,4.00
2018-09-21T09:14:49.094Z,4.40
2018-09-21T09:15:49.958Z,3.80
2018-09-21T09:16:51.007Z,3.80
2018-09-21T09:17:49.120Z,4.20
2018-09-21T09:18:49.152Z,3.70
2018-09-21T09:19:49.136Z,4.00
2018-09-21T09:20:49.144Z,3.90
2018-09-21T09:21:49.153Z,3.80
2018-09-21T09:22:49.161Z,4.00
2018-09-21T09:23:49.306Z,4.20
2018-09-21T09:24:49.182Z,4.30
2018-09-21T09:25:49.190Z,4.20
2018-09-21T09:26:49.198Z,4.10
2018-09-21T09:27:49.206Z,4.20
2018-09-21T09:28:49.244Z,4.00
2018-09-21T09:29:49.236Z,3.90
2018-09-21T09:30:49.238Z,4.10
2018-09-21T09:31:49.243Z,4.10
2018-09-21T09:32:49.251Z,3.70
2018-09-21T09:33:49.287Z,4.40
2018-09-21T09:34:49.273Z,3.90
2018-09-21T09:35:49.311Z,3.70
2018-09-21T09:36:49.335Z,4.00
2018-09-21T09:37:49.304Z,4.70
2018-09-21T09:38:49.330Z,4.20
2018-09-21T09:39:49.317Z,4.10
2018-09-21T09:40:49.325Z,4.30
2018-09-21T09:41:49.337Z,3.90
2018-09-21T09:42:49.398Z,4.00
2018-09-21T09:43:49.385Z,4.50
2018-09-21T09:44:49.361Z,3.50
2018-09-21T09:45:49.374Z,4.10
2018-09-21T09:46:49.379Z,3.90
2018-09-21T09:47:49.392Z,4.10
2018-09-21T09:48:49.475Z,3.40
2018-09-21T09:49:49.407Z,3.90
2018-09-21T09:50:49.414Z,4.00
2018-09-21T09:51:49.424Z,4.20
2018-09-21T09:52:49.433Z,4.00
2018-09-21T09:53:49.472Z,4.30
2018-09-21T09:54:49.466Z,4.30
2018-09-21T09:55:49.466Z,4.80
2018-09-21T09:56:49.469Z,4.10
2018-09-21T09:57:49.550Z,4.10
2018-09-21T09:58:49.513Z,4.30
2018-09-21T09:59:49.533Z,4.50
2018-09-21T10:00:49.535Z,4.00
2018-09-21T10:01:49.533Z,3.90
2018-09-21T10:02:49.558Z,3.90
2018-09-21T10:03:49.599Z,3.70
2018-09-21T10:04:49.551Z,3.80
2018-09-21T10:05:49.540Z,3.70
2018-09-21T10:06:49.569Z,4.00
2018-09-21T10:07:49.559Z,3.50
2018-09-21T10:08:49.592Z,3.70
2018-09-21T10:09:49.571Z,3.60
2018-09-21T10:10:49.590Z,3.90
2018-09-21T10:11:49.619Z,3.70
2018-09-21T10:12:49.622Z,3.50
2018-09-21T10:13:49.637Z,3.70
2018-09-21T10:14:49.643Z,3.90
2018-09-21T10:15:49.625Z,3.70
2018-09-21T10:16:49.633Z,3.80
2018-09-21T10:17:49.643Z,3.70
2018-09-21T10:18:49.679Z,3.30
2018-09-21T10:19:49.687Z,2.80
2018-09-21T10:20:49.762Z,3.50
2018-09-21T10:21:49.675Z,3.20
2018-09-21T10:22:49.684Z,3.40
2018-09-21T10:23:49.720Z,2.90
2018-09-21T10:24:49.701Z,3.50
2018-09-21T10:25:49.705Z,3.50
2018-09-21T10:26:49.719Z,3.50
2018-09-21T10:27:49.824Z,3.30
2018-09-21T10:28:49.886Z,3.40
2018-09-21T10:29:49.738Z,3.70
2018-09-21T10:30:49.749Z,3.50
2018-09-21T10:31:49.755Z,3.30
2018-09-21T10:32:49.761Z,3.30
2018-09-21T10:33:49.866Z,3.20
2018-09-21T10:34:49.779Z,3.70
2018-09-21T10:35:49.788Z,3.70
2018-09-21T10:36:49.794Z,3.30
2018-09-21T10:37:49.803Z,3.50
2018-09-21T10:38:49.863Z,3.30
2018-09-21T10:39:49.893Z,3.30
2018-09-21T10:40:49.824Z,2.90
2018-09-21T10:41:49.832Z,3.40
2018-09-21T10:42:49.917Z,3.40
2018-09-21T10:43:49.905Z,3.60
2018-09-21T10:44:49.907Z,3.40
2018-09-21T10:45:49.862Z,3.20
2018-09-21T10:46:49.869Z,3.20
2018-09-21T10:47:49.875Z,4.10
2018-09-21T10:48:49.884Z,3.30
2018-09-21T10:49:49.922Z,3.00
2018-09-21T10:50:49.896Z,3.30
2018-09-21T10:51:49.904Z,3.60
2018-09-21T10:52:49.921Z,3.90
2018-09-21T10:53:49.948Z,3.60
2018-09-21T10:54:49.961Z,4.10
2018-09-21T10:55:49.936Z,3.60
2018-09-21T10:56:49.943Z,3.90
2018-09-21T10:57:49.943Z,3.90
2018-09-21T10:58:49.989Z,3.40
2018-09-21T10:59:49.992Z,3.80
2018-09-21T11:00:49.975Z,3.70
2018-09-21T11:01:49.981Z,3.80
2018-09-21T11:02:49.989Z,4.00
2018-09-21T11:03:50.022Z,3.90
2018-09-21T11:04:50.026Z,3.40
2018-09-21T11:05:50.009Z,4.10
2018-09-21T11:06:50.014Z,3.50
2018-09-21T11:07:50.022Z,3.80
2018-09-21T11:08:50.027Z,3.60
2018-09-21T11:09:50.063Z,3.80
2018-09-21T11:10:50.043Z,3.80
2018-09-21T11:11:50.083Z,3.70
2018-09-21T11:12:50.055Z,3.70
2018-09-21T11:13:50.094Z,4.20
2018-09-21T11:14:50.073Z,3.70
2018-09-21T11:15:50.076Z,3.80
2018-09-21T11:16:50.091Z,3.70
2018-09-21T11:17:50.104Z,4.10
2018-09-21T11:18:50.151Z,3.80
2018-09-21T11:19:50.109Z,4.00
2018-09-21T11:20:50.117Z,3.70
2018-09-21T11:21:50.117Z,3.10
2018-09-21T11:22:50.127Z,3.40
2018-09-21T11:23:50.162Z,3.50
2018-09-21T11:24:50.145Z,3.20
2018-09-21T11:25:50.151Z,3.40
2018-09-21T11:26:50.162Z,4.10
2018-09-21T11:27:50.160Z,3.80
2018-09-21T11:28:50.202Z,4.00
2018-09-21T11:29:50.184Z,4.00
2018-09-21T11:30:50.188Z,4.00
2018-09-21T11:31:50.192Z,3.80
2018-09-21T11:32:50.201Z,3.80
2018-09-21T11:33:50.235Z,4.00
2018-09-21T11:34:50.218Z,3.70
2018-09-21T11:35:50.225Z,3.00
2018-09-21T11:36:50.287Z,3.90
2018-09-21T11:37:50.250Z,3.70
2018-09-21T11:38:50.278Z,3.80
2018-09-21T11:39:50.263Z,3.90
2018-09-21T11:40:50.337Z,3.00
2018-09-21T11:41:50.275Z,3.30
2018-09-21T11:42:50.293Z,4.20
2018-09-21T11:43:50.339Z,3.50
2018-09-21T11:44:50.308Z,3.90
2018-09-21T11:45:50.316Z,3.60
2018-09-21T11:46:50.362Z,3.90
2018-09-21T11:47:50.392Z,3.70
2018-09-21T11:48:50.377Z,3.70
2018-09-21T11:49:50.353Z,3.90
2018-09-21T11:50:50.370Z,3.20
2018-09-21T11:51:50.380Z,2.70
2018-09-21T11:52:50.392Z,3.20
2018-09-21T11:53:50.429Z,3.70
2018-09-21T11:54:50.409Z,3.60
2018-09-21T11:55:50.419Z,3.30
2018-09-21T11:56:50.428Z,3.30
2018-09-21T11:57:50.444Z,3.30
2018-09-21T11:58:50.492Z,3.90
2018-09-21T11:59:50.954Z,3.20
2018-09-21T12:00:56.524Z,3.90
2018-09-21T12:01:50.556Z,3.90
2018-09-21T12:02:52.521Z,3.60
2018-09-21T12:03:51.566Z,3.80
2018-09-21T12:04:51.514Z,3.70
2018-09-21T12:05:50.549Z,3.40
2018-09-21T12:06:58.819Z,3.60
2018-09-21T12:07:57.821Z,3.10
2018-09-21T12:08:55.376Z,3.70
2018-09-21T12:09:52.395Z,4.10
2018-09-21T12:10:52.465Z,3.60
2018-09-21T12:11:51.405Z,3.70
2018-09-21T12:12:53.895Z,3.50
2018-09-21T12:13:51.111Z,3.20
2018-09-21T12:14:51.834Z,3.90
2018-09-21T12:15:50.693Z,3.80
2018-09-21T12:16:52.366Z,4.00
2018-09-21T12:17:51.180Z,3.90
2018-09-21T12:18:52.553Z,3.50
2018-09-21T12:19:54.469Z,3.00
2018-09-21T12:20:51.661Z,3.10
2018-09-21T12:21:55.843Z,3.70
2018-09-21T12:22:50.775Z,3.70
2018-09-21T12:23:51.102Z,4.10
2018-09-21T12:24:51.611Z,3.90
2018-09-21T12:25:51.446Z,4.00
2018-09-21T12:26:53.470Z,3.50
2018-09-21T12:27:51.342Z,3.70
2018-09-21T12:28:54.839Z,3.70
2018-09-21T12:29:55.352Z,3.90
2018-09-21T12:30:55.023Z,3.70
2018-09-21T12:31:51.774Z,3.90
2018-09-21T12:32:52.008Z,3.30
2018-09-21T12:33:50.851Z,2.60
2018-09-21T12:34:50.888Z,3.10
2018-09-21T12:35:50.939Z,2.50
2018-09-21T12:36:50.886Z,3.30
2018-09-21T12:37:50.903Z,2.80
2018-09-21T12:38:50.946Z,2.80
2018-09-21T12:39:50.935Z,2.90
2018-09-21T12:40:50.953Z,2.80
2018-09-21T12:41:50.960Z,2.70
2018-09-21T12:42:50.995Z,2.70
2018-09-21T12:43:50.977Z,2.90
2018-09-21T12:44:50.993Z,3.40
2018-09-21T12:45:51.056Z,3.20
2018-09-21T12:46:51.032Z,3.00
2018-09-21T12:47:51.039Z,3.00
2018-09-21T12:48:51.080Z,2.80
2018-09-21T12:49:51.082Z,3.20
2018-09-21T12:50:52.040Z,3.20
2018-09-21T12:51:51.088Z,3.10
2018-09-21T12:52:51.105Z,2.90
2018-09-21T12:53:51.145Z,2.80
2018-09-21T12:54:51.129Z,2.50
2018-09-21T12:55:51.144Z,2.70
2018-09-21T12:56:51.158Z,2.90
2018-09-21T12:57:51.237Z,2.70
2018-09-21T12:58:51.278Z,2.50
2018-09-21T12:59:51.197Z,2.40
2018-09-21T13:00:51.218Z,3.00
2018-09-21T13:01:51.223Z,2.60
2018-09-21T13:02:51.234Z,3.20
2018-09-21T13:03:51.287Z,3.10
2018-09-21T13:04:51.269Z,2.70
2018-09-21T13:05:51.271Z,3.20
2018-09-21T13:06:51.286Z,3.10
2018-09-21T13:07:51.324Z,2.90
2018-09-21T13:08:51.303Z,2.60
2018-09-21T13:09:51.321Z,2.50
2018-09-21T13:10:51.452Z,2.70
2018-09-21T13:11:51.340Z,2.60
2018-09-21T13:12:51.377Z,2.50
2018-09-21T13:13:51.360Z,2.70
2018-09-21T13:14:51.373Z,2.90
2018-09-21T13:15:51.395Z,2.40
2018-09-21T13:16:51.397Z,2.80
2018-09-21T13:17:51.431Z,3.10
2018-09-21T13:18:51.412Z,2.50